sensor_id;sensor_type;location;lat;lon;timestamp;P1;durP1;ratioP1;P2;durP2;ratioP2
57191;SDS011;43052;52.588;13.396;2023-05-29T00:01:22;9.88;;;5.28;;
57191;SDS011;43052;52.588;13.396;2023-05-29T00:03:48;11.65;;;5.50;;
57191;SDS011;43052;52.588;13.396;2023-05-29T00:06:14;13.00;;;5.72;;
57191;SDS011;43052;52.588;13.396;2023-05-29T00:08:39;10.27;;;5.63;;
57191;SDS011;43052;52.588;13.396;2023-05-29T00:11:05;10.13;;;5.43;;
57191;SDS011;43052;52.588;13.396;2023-05-29T00:13:30;10.40;;;5.50;;
57191;SDS011;43052;52.588;13.396;2023-05-29T00:15:56;10.38;;;5.35;;
57191;SDS011;43052;52.588;13.396;2023-05-29T00:18:21;9.55;;;5.32;;
57191;SDS011;43052;52.588;13.396;2023-05-29T00:20:47;10.73;;;4.68;;
57191;SDS011;43052;52.588;13.396;2023-05-29T00:23:12;8.38;;;5.45;;
57191;SDS011;43052;52.588;13.396;2023-05-29T00:25:37;12.20;;;6.05;;
57191;SDS011;43052;52.588;13.396;2023-05-29T00:28:05;9.82;;;5.63;;
57191;SDS011;43052;52.588;13.396;2023-05-29T00:30:31;11.00;;;5.85;;
57191;SDS011;43052;52.588;13.396;2023-05-29T00:32:56;12.45;;;5.78;;
57191;SDS011;43052;52.588;13.396;2023-05-29T00:35:21;13.75;;;6.55;;
57191;SDS011;43052;52.588;13.396;2023-05-29T00:37:47;10.57;;;6.28;;
57191;SDS011;43052;52.588;13.396;2023-05-29T00:40:12;11.38;;;5.88;;
57191;SDS011;43052;52.588;13.396;2023-05-29T00:42:39;10.18;;;6.00;;
57191;SDS011;43052;52.588;13.396;2023-05-29T00:45:05;14.10;;;6.57;;
57191;SDS011;43052;52.588;13.396;2023-05-29T00:47:31;10.52;;;6.90;;
57191;SDS011;43052;52.588;13.396;2023-05-29T00:49:56;10.15;;;6.47;;
57191;SDS011;43052;52.588;13.396;2023-05-29T00:52:22;10.73;;;7.13;;
57191;SDS011;43052;52.588;13.396;2023-05-29T00:54:49;12.50;;;6.95;;
57191;SDS011;43052;52.588;13.396;2023-05-29T00:57:15;12.45;;;7.57;;
57191;SDS011;43052;52.588;13.396;2023-05-29T00:59:41;13.98;;;6.85;;
57191;SDS011;43052;52.588;13.396;2023-05-29T01:02:07;13.15;;;7.70;;
57191;SDS011;43052;52.588;13.396;2023-05-29T01:04:33;14.20;;;8.07;;
57191;SDS011;43052;52.588;13.396;2023-05-29T01:07:02;14.50;;;7.75;;
57191;SDS011;43052;52.588;13.396;2023-05-29T01:09:28;13.80;;;8.45;;
57191;SDS011;43052;52.588;13.396;2023-05-29T01:14:56;18.33;;;8.80;;
57191;SDS011;43052;52.588;13.396;2023-05-29T01:17:32;12.85;;;8.50;;
57191;SDS011;43052;52.588;13.396;2023-05-29T01:29:07;14.85;;;9.30;;
57191;SDS011;43052;52.588;13.396;2023-05-29T01:31:35;13.55;;;8.05;;
57191;SDS011;43052;52.588;13.396;2023-05-29T01:34:02;15.05;;;8.35;;
57191;SDS011;43052;52.588;13.396;2023-05-29T01:36:27;13.05;;;8.27;;
57191;SDS011;43052;52.588;13.396;2023-05-29T01:38:53;15.63;;;8.18;;
57191;SDS011;43052;52.588;13.396;2023-05-29T01:41:21;13.93;;;8.10;;
57191;SDS011;43052;52.588;13.396;2023-05-29T01:43:48;16.52;;;8.35;;
57191;SDS011;43052;52.588;13.396;2023-05-29T01:46:14;12.98;;;7.70;;
57191;SDS011;43052;52.588;13.396;2023-05-29T01:48:41;14.55;;;7.25;;
57191;SDS011;43052;52.588;13.396;2023-05-29T01:51:07;13.95;;;7.53;;
57191;SDS011;43052;52.588;13.396;2023-05-29T01:53:33;13.32;;;6.75;;
57191;SDS011;43052;52.588;13.396;2023-05-29T01:55:58;13.55;;;6.75;;
57191;SDS011;43052;52.588;13.396;2023-05-29T01:58:24;11.80;;;6.90;;
57191;SDS011;43052;52.588;13.396;2023-05-29T02:00:50;13.68;;;7.72;;
57191;SDS011;43052;52.588;13.396;2023-05-29T02:03:16;11.70;;;6.60;;
57191;SDS011;43052;52.588;13.396;2023-05-29T02:05:42;11.50;;;6.95;;
57191;SDS011;43052;52.588;13.396;2023-05-29T02:08:07;10.70;;;5.65;;
57191;SDS011;43052;52.588;13.396;2023-05-29T02:10:32;14.20;;;6.88;;
57191;SDS011;43052;52.588;13.396;2023-05-29T02:12:57;12.88;;;6.40;;
57191;SDS011;43052;52.588;13.396;2023-05-29T02:15:23;14.23;;;7.00;;
57191;SDS011;43052;52.588;13.396;2023-05-29T02:17:48;10.88;;;6.32;;
57191;SDS011;43052;52.588;13.396;2023-05-29T02:20:14;13.52;;;6.15;;
57191;SDS011;43052;52.588;13.396;2023-05-29T02:22:40;10.07;;;6.50;;
57191;SDS011;43052;52.588;13.396;2023-05-29T02:25:05;11.32;;;6.38;;
57191;SDS011;43052;52.588;13.396;2023-05-29T02:27:31;10.32;;;6.60;;
57191;SDS011;43052;52.588;13.396;2023-05-29T02:29:56;11.77;;;6.75;;
57191;SDS011;43052;52.588;13.396;2023-05-29T02:32:23;10.48;;;6.55;;
57191;SDS011;43052;52.588;13.396;2023-05-29T02:34:48;9.40;;;6.10;;
57191;SDS011;43052;52.588;13.396;2023-05-29T02:37:14;9.98;;;6.20;;
57191;SDS011;43052;52.588;13.396;2023-05-29T02:39:40;10.77;;;6.60;;
57191;SDS011;43052;52.588;13.396;2023-05-29T02:42:05;10.80;;;6.10;;
57191;SDS011;43052;52.588;13.396;2023-05-29T02:44:30;11.50;;;6.28;;
57191;SDS011;43052;52.588;13.396;2023-05-29T02:46:56;9.07;;;5.38;;
57191;SDS011;43052;52.588;13.396;2023-05-29T02:49:21;11.75;;;6.63;;
57191;SDS011;43052;52.588;13.396;2023-05-29T02:51:47;12.18;;;6.43;;
57191;SDS011;43052;52.588;13.396;2023-05-29T02:54:12;12.18;;;6.68;;
57191;SDS011;43052;52.588;13.396;2023-05-29T02:56:37;11.73;;;6.75;;
57191;SDS011;43052;52.588;13.396;2023-05-29T02:59:02;10.43;;;6.45;;
57191;SDS011;43052;52.588;13.396;2023-05-29T03:01:28;13.38;;;6.47;;
57191;SDS011;43052;52.588;13.396;2023-05-29T03:03:53;11.20;;;6.43;;
57191;SDS011;43052;52.588;13.396;2023-05-29T03:06:18;11.48;;;6.70;;
57191;SDS011;43052;52.588;13.396;2023-05-29T03:08:43;11.02;;;6.43;;
57191;SDS011;43052;52.588;13.396;2023-05-29T03:11:09;12.35;;;6.93;;
57191;SDS011;43052;52.588;13.396;2023-05-29T03:13:36;12.80;;;6.63;;
57191;SDS011;43052;52.588;13.396;2023-05-29T03:16:01;12.50;;;6.93;;
57191;SDS011;43052;52.588;13.396;2023-05-29T03:18:26;9.85;;;5.57;;
57191;SDS011;43052;52.588;13.396;2023-05-29T03:20:52;10.35;;;6.45;;
57191;SDS011;43052;52.588;13.396;2023-05-29T03:23:17;9.52;;;6.45;;
57191;SDS011;43052;52.588;13.396;2023-05-29T03:25:42;11.80;;;6.75;;
57191;SDS011;43052;52.588;13.396;2023-05-29T03:28:07;13.00;;;6.80;;
57191;SDS011;43052;52.588;13.396;2023-05-29T03:30:33;10.80;;;6.68;;
57191;SDS011;43052;52.588;13.396;2023-05-29T03:32:58;12.80;;;7.10;;
57191;SDS011;43052;52.588;13.396;2023-05-29T03:35:28;9.98;;;6.38;;
57191;SDS011;43052;52.588;13.396;2023-05-29T03:37:53;10.85;;;6.65;;
57191;SDS011;43052;52.588;13.396;2023-05-29T03:40:18;9.25;;;6.13;;
57191;SDS011;43052;52.588;13.396;2023-05-29T03:42:44;10.52;;;6.35;;
57191;SDS011;43052;52.588;13.396;2023-05-29T03:45:09;10.02;;;6.32;;
57191;SDS011;43052;52.588;13.396;2023-05-29T03:47:34;11.10;;;6.75;;
57191;SDS011;43052;52.588;13.396;2023-05-29T03:50:00;12.15;;;6.57;;
57191;SDS011;43052;52.588;13.396;2023-05-29T03:52:25;10.75;;;6.05;;
57191;SDS011;43052;52.588;13.396;2023-05-29T03:54:52;9.75;;;6.22;;
57191;SDS011;43052;52.588;13.396;2023-05-29T03:57:18;9.32;;;5.93;;
57191;SDS011;43052;52.588;13.396;2023-05-29T03:59:43;9.73;;;5.53;;
57191;SDS011;43052;52.588;13.396;2023-05-29T04:02:08;9.23;;;5.97;;
57191;SDS011;43052;52.588;13.396;2023-05-29T04:04:33;9.00;;;4.93;;
57191;SDS011;43052;52.588;13.396;2023-05-29T04:07:06;9.40;;;6.35;;
57191;SDS011;43052;52.588;13.396;2023-05-29T04:09:32;10.93;;;5.30;;
57191;SDS011;43052;52.588;13.396;2023-05-29T04:11:58;9.48;;;5.25;;
57191;SDS011;43052;52.588;13.396;2023-05-29T04:14:27;9.00;;;5.05;;
57191;SDS011;43052;52.588;13.396;2023-05-29T04:16:52;8.27;;;4.97;;
57191;SDS011;43052;52.588;13.396;2023-05-29T04:19:17;7.45;;;5.10;;
57191;SDS011;43052;52.588;13.396;2023-05-29T04:21:42;13.38;;;5.03;;
57191;SDS011;43052;52.588;13.396;2023-05-29T04:24:08;9.98;;;5.22;;
57191;SDS011;43052;52.588;13.396;2023-05-29T04:26:33;7.68;;;4.70;;
57191;SDS011;43052;52.588;13.396;2023-05-29T04:28:58;9.68;;;5.18;;
57191;SDS011;43052;52.588;13.396;2023-05-29T04:34:31;7.47;;;5.20;;
57191;SDS011;43052;52.588;13.396;2023-05-29T04:36:57;9.98;;;4.93;;
57191;SDS011;43052;52.588;13.396;2023-05-29T04:39:23;8.50;;;4.50;;
57191;SDS011;43052;52.588;13.396;2023-05-29T04:41:48;8.43;;;5.10;;
57191;SDS011;43052;52.588;13.396;2023-05-29T04:44:14;7.78;;;4.43;;
57191;SDS011;43052;52.588;13.396;2023-05-29T04:46:40;9.43;;;4.80;;
57191;SDS011;43052;52.588;13.396;2023-05-29T04:49:05;9.75;;;4.53;;
57191;SDS011;43052;52.588;13.396;2023-05-29T04:51:30;10.73;;;5.38;;
57191;SDS011;43052;52.588;13.396;2023-05-29T04:53:56;7.82;;;4.75;;
57191;SDS011;43052;52.588;13.396;2023-05-29T04:56:21;9.50;;;5.30;;
57191;SDS011;43052;52.588;13.396;2023-05-29T04:58:47;7.35;;;4.22;;
57191;SDS011;43052;52.588;13.396;2023-05-29T05:01:12;7.20;;;5.03;;
57191;SDS011;43052;52.588;13.396;2023-05-29T05:03:39;8.82;;;4.72;;
57191;SDS011;43052;52.588;13.396;2023-05-29T05:06:05;9.32;;;5.32;;
57191;SDS011;43052;52.588;13.396;2023-05-29T05:08:32;8.38;;;4.68;;
57191;SDS011;43052;52.588;13.396;2023-05-29T05:10:58;5.60;;;3.97;;
57191;SDS011;43052;52.588;13.396;2023-05-29T05:13:24;7.07;;;4.00;;
57191;SDS011;43052;52.588;13.396;2023-05-29T05:15:50;7.05;;;4.43;;
57191;SDS011;43052;52.588;13.396;2023-05-29T05:18:15;7.97;;;4.53;;
57191;SDS011;43052;52.588;13.396;2023-05-29T05:20:40;6.72;;;3.92;;
57191;SDS011;43052;52.588;13.396;2023-05-29T05:23:05;7.18;;;3.67;;
57191;SDS011;43052;52.588;13.396;2023-05-29T05:25:31;5.57;;;3.60;;
57191;SDS011;43052;52.588;13.396;2023-05-29T05:27:58;5.63;;;3.60;;
57191;SDS011;43052;52.588;13.396;2023-05-29T05:30:23;6.55;;;3.35;;
57191;SDS011;43052;52.588;13.396;2023-05-29T05:32:48;6.38;;;3.80;;
57191;SDS011;43052;52.588;13.396;2023-05-29T05:35:13;7.03;;;4.13;;
57191;SDS011;43052;52.588;13.396;2023-05-29T05:37:39;6.35;;;3.42;;
57191;SDS011;43052;52.588;13.396;2023-05-29T05:40:04;6.13;;;3.45;;
57191;SDS011;43052;52.588;13.396;2023-05-29T05:42:31;6.70;;;3.38;;
57191;SDS011;43052;52.588;13.396;2023-05-29T05:44:57;6.22;;;3.88;;
57191;SDS011;43052;52.588;13.396;2023-05-29T05:47:22;6.25;;;3.75;;
57191;SDS011;43052;52.588;13.396;2023-05-29T05:49:47;4.97;;;3.17;;
57191;SDS011;43052;52.588;13.396;2023-05-29T05:52:14;5.88;;;3.25;;
57191;SDS011;43052;52.588;13.396;2023-05-29T05:54:40;5.88;;;3.35;;
57191;SDS011;43052;52.588;13.396;2023-05-29T05:57:06;4.20;;;3.10;;
57191;SDS011;43052;52.588;13.396;2023-05-29T05:59:32;5.45;;;3.65;;
57191;SDS011;43052;52.588;13.396;2023-05-29T06:01:57;6.65;;;3.30;;
57191;SDS011;43052;52.588;13.396;2023-05-29T06:04:23;4.55;;;2.80;;
57191;SDS011;43052;52.588;13.396;2023-05-29T06:06:48;4.38;;;3.30;;
57191;SDS011;43052;52.588;13.396;2023-05-29T06:09:13;4.47;;;2.83;;
57191;SDS011;43052;52.588;13.396;2023-05-29T06:11:38;5.18;;;2.97;;
57191;SDS011;43052;52.588;13.396;2023-05-29T06:14:04;4.85;;;3.00;;
57191;SDS011;43052;52.588;13.396;2023-05-29T06:16:30;5.38;;;2.85;;
57191;SDS011;43052;52.588;13.396;2023-05-29T06:18:55;5.82;;;2.95;;
57191;SDS011;43052;52.588;13.396;2023-05-29T06:21:20;5.53;;;3.20;;
57191;SDS011;43052;52.588;13.396;2023-05-29T06:23:46;5.72;;;3.20;;
57191;SDS011;43052;52.588;13.396;2023-05-29T06:26:12;5.05;;;3.20;;
57191;SDS011;43052;52.588;13.396;2023-05-29T06:28:41;5.38;;;3.30;;
57191;SDS011;43052;52.588;13.396;2023-05-29T06:31:06;5.35;;;3.47;;
57191;SDS011;43052;52.588;13.396;2023-05-29T06:33:31;4.72;;;3.17;;
57191;SDS011;43052;52.588;13.396;2023-05-29T06:35:57;4.38;;;2.88;;
57191;SDS011;43052;52.588;13.396;2023-05-29T06:38:22;4.60;;;2.87;;
57191;SDS011;43052;52.588;13.396;2023-05-29T06:40:47;4.77;;;2.87;;
57191;SDS011;43052;52.588;13.396;2023-05-29T06:43:12;3.97;;;2.60;;
57191;SDS011;43052;52.588;13.396;2023-05-29T06:45:38;4.00;;;2.57;;
57191;SDS011;43052;52.588;13.396;2023-05-29T06:48:03;3.35;;;2.30;;
57191;SDS011;43052;52.588;13.396;2023-05-29T06:50:28;4.13;;;2.47;;
57191;SDS011;43052;52.588;13.396;2023-05-29T06:52:54;3.65;;;2.78;;
57191;SDS011;43052;52.588;13.396;2023-05-29T06:55:19;4.33;;;2.43;;
57191;SDS011;43052;52.588;13.396;2023-05-29T06:57:45;3.45;;;2.50;;
57191;SDS011;43052;52.588;13.396;2023-05-29T07:00:10;3.63;;;2.53;;
57191;SDS011;43052;52.588;13.396;2023-05-29T07:02:36;4.53;;;2.70;;
57191;SDS011;43052;52.588;13.396;2023-05-29T07:05:02;3.42;;;2.58;;
57191;SDS011;43052;52.588;13.396;2023-05-29T07:07:28;3.80;;;2.55;;
57191;SDS011;43052;52.588;13.396;2023-05-29T07:09:53;4.45;;;2.88;;
57191;SDS011;43052;52.588;13.396;2023-05-29T07:12:18;4.10;;;2.63;;
57191;SDS011;43052;52.588;13.396;2023-05-29T07:14:44;3.40;;;2.50;;
57191;SDS011;43052;52.588;13.396;2023-05-29T07:17:11;4.80;;;3.45;;
57191;SDS011;43052;52.588;13.396;2023-05-29T07:19:36;3.53;;;2.70;;
57191;SDS011;43052;52.588;13.396;2023-05-29T07:22:02;3.70;;;2.73;;
57191;SDS011;43052;52.588;13.396;2023-05-29T07:24:27;5.23;;;2.63;;
57191;SDS011;43052;52.588;13.396;2023-05-29T07:26:52;4.50;;;2.75;;
57191;SDS011;43052;52.588;13.396;2023-05-29T07:29:18;3.25;;;2.40;;
57191;SDS011;43052;52.588;13.396;2023-05-29T07:31:48;4.78;;;2.97;;
57191;SDS011;43052;52.588;13.396;2023-05-29T07:34:13;3.47;;;2.47;;
57191;SDS011;43052;52.588;13.396;2023-05-29T07:36:47;2.88;;;2.10;;
57191;SDS011;43052;52.588;13.396;2023-05-29T07:39:28;3.58;;;2.00;;
57191;SDS011;43052;52.588;13.396;2023-05-29T07:41:54;3.80;;;2.67;;
57191;SDS011;43052;52.588;13.396;2023-05-29T07:44:19;3.10;;;2.27;;
57191;SDS011;43052;52.588;13.396;2023-05-29T07:46:45;3.90;;;2.55;;
57191;SDS011;43052;52.588;13.396;2023-05-29T07:49:11;3.30;;;2.55;;
57191;SDS011;43052;52.588;13.396;2023-05-29T07:51:36;4.03;;;2.83;;
57191;SDS011;43052;52.588;13.396;2023-05-29T07:54:01;3.67;;;2.67;;
57191;SDS011;43052;52.588;13.396;2023-05-29T07:56:27;4.57;;;2.55;;
57191;SDS011;43052;52.588;13.396;2023-05-29T07:58:52;4.20;;;2.33;;
57191;SDS011;43052;52.588;13.396;2023-05-29T08:01:21;3.50;;;2.50;;
57191;SDS011;43052;52.588;13.396;2023-05-29T08:03:47;3.80;;;2.30;;
57191;SDS011;43052;52.588;13.396;2023-05-29T08:06:12;3.58;;;2.33;;
57191;SDS011;43052;52.588;13.396;2023-05-29T08:08:37;3.92;;;2.65;;
57191;SDS011;43052;52.588;13.396;2023-05-29T08:11:03;2.80;;;2.33;;
57191;SDS011;43052;52.588;13.396;2023-05-29T08:13:29;4.87;;;2.43;;
57191;SDS011;43052;52.588;13.396;2023-05-29T08:15:55;4.00;;;2.67;;
57191;SDS011;43052;52.588;13.396;2023-05-29T08:18:20;3.78;;;2.55;;
57191;SDS011;43052;52.588;13.396;2023-05-29T08:20:46;3.13;;;2.40;;
57191;SDS011;43052;52.588;13.396;2023-05-29T08:23:11;3.23;;;2.30;;
57191;SDS011;43052;52.588;13.396;2023-05-29T08:25:36;3.90;;;2.53;;
57191;SDS011;43052;52.588;13.396;2023-05-29T08:28:01;4.60;;;2.40;;
57191;SDS011;43052;52.588;13.396;2023-05-29T08:30:26;3.20;;;2.37;;
57191;SDS011;43052;52.588;13.396;2023-05-29T08:32:52;4.10;;;2.70;;
57191;SDS011;43052;52.588;13.396;2023-05-29T08:35:17;3.87;;;2.30;;
57191;SDS011;43052;52.588;13.396;2023-05-29T08:37:42;2.63;;;2.42;;
57191;SDS011;43052;52.588;13.396;2023-05-29T08:40:08;3.33;;;2.70;;
57191;SDS011;43052;52.588;13.396;2023-05-29T08:42:36;3.28;;;2.28;;
57191;SDS011;43052;52.588;13.396;2023-05-29T08:45:04;3.70;;;2.30;;
57191;SDS011;43052;52.588;13.396;2023-05-29T08:47:33;3.30;;;2.40;;
57191;SDS011;43052;52.588;13.396;2023-05-29T08:49:58;5.20;;;2.63;;
57191;SDS011;43052;52.588;13.396;2023-05-29T08:52:25;4.53;;;2.30;;
57191;SDS011;43052;52.588;13.396;2023-05-29T08:54:54;5.97;;;2.63;;
57191;SDS011;43052;52.588;13.396;2023-05-29T08:57:20;3.25;;;2.40;;
57191;SDS011;43052;52.588;13.396;2023-05-29T08:59:46;4.88;;;2.70;;
57191;SDS011;43052;52.588;13.396;2023-05-29T09:02:15;3.55;;;2.65;;
57191;SDS011;43052;52.588;13.396;2023-05-29T09:04:41;4.13;;;2.27;;
57191;SDS011;43052;52.588;13.396;2023-05-29T09:07:07;4.15;;;2.80;;
57191;SDS011;43052;52.588;13.396;2023-05-29T09:09:33;4.40;;;2.70;;
57191;SDS011;43052;52.588;13.396;2023-05-29T09:11:58;4.23;;;2.63;;
57191;SDS011;43052;52.588;13.396;2023-05-29T09:14:36;4.13;;;2.90;;
57191;SDS011;43052;52.588;13.396;2023-05-29T09:17:04;4.28;;;2.88;;
57191;SDS011;43052;52.588;13.396;2023-05-29T09:19:31;4.03;;;2.78;;
57191;SDS011;43052;52.588;13.396;2023-05-29T09:22:00;3.38;;;2.72;;
57191;SDS011;43052;52.588;13.396;2023-05-29T09:24:30;4.32;;;2.55;;
57191;SDS011;43052;52.588;13.396;2023-05-29T09:26:58;3.70;;;2.70;;
57191;SDS011;43052;52.588;13.396;2023-05-29T09:29:24;3.75;;;2.30;;
57191;SDS011;43052;52.588;13.396;2023-05-29T09:31:50;3.58;;;2.50;;
57191;SDS011;43052;52.588;13.396;2023-05-29T09:34:15;4.50;;;2.87;;
57191;SDS011;43052;52.588;13.396;2023-05-29T09:36:41;5.07;;;3.00;;
57191;SDS011;43052;52.588;13.396;2023-05-29T09:39:06;3.65;;;2.53;;
57191;SDS011;43052;52.588;13.396;2023-05-29T09:41:41;5.40;;;3.15;;
57191;SDS011;43052;52.588;13.396;2023-05-29T09:44:07;4.53;;;2.83;;
57191;SDS011;43052;52.588;13.396;2023-05-29T09:46:35;4.07;;;2.90;;
57191;SDS011;43052;52.588;13.396;2023-05-29T09:49:03;5.55;;;2.90;;
57191;SDS011;43052;52.588;13.396;2023-05-29T09:51:35;4.57;;;2.80;;
57191;SDS011;43052;52.588;13.396;2023-05-29T09:54:02;3.13;;;2.83;;
57191;SDS011;43052;52.588;13.396;2023-05-29T09:56:38;3.90;;;2.50;;
57191;SDS011;43052;52.588;13.396;2023-05-29T09:59:05;4.82;;;2.90;;
57191;SDS011;43052;52.588;13.396;2023-05-29T10:01:31;3.60;;;2.55;;
57191;SDS011;43052;52.588;13.396;2023-05-29T10:03:57;3.78;;;2.38;;
57191;SDS011;43052;52.588;13.396;2023-05-29T10:06:22;4.27;;;2.77;;
57191;SDS011;43052;52.588;13.396;2023-05-29T10:08:47;3.90;;;2.38;;
57191;SDS011;43052;52.588;13.396;2023-05-29T10:11:20;6.90;;;3.28;;
57191;SDS011;43052;52.588;13.396;2023-05-29T10:13:50;4.65;;;2.80;;
57191;SDS011;43052;52.588;13.396;2023-05-29T10:16:16;4.75;;;2.80;;
57191;SDS011;43052;52.588;13.396;2023-05-29T10:18:47;3.53;;;2.45;;
57191;SDS011;43052;52.588;13.396;2023-05-29T10:21:17;5.07;;;3.25;;
57191;SDS011;43052;52.588;13.396;2023-05-29T10:23:45;4.95;;;3.28;;
57191;SDS011;43052;52.588;13.396;2023-05-29T10:26:14;5.15;;;3.38;;
57191;SDS011;43052;52.588;13.396;2023-05-29T10:28:46;5.57;;;2.80;;
57191;SDS011;43052;52.588;13.396;2023-05-29T10:31:18;4.15;;;2.50;;
57191;SDS011;43052;52.588;13.396;2023-05-29T10:33:52;3.55;;;2.55;;
57191;SDS011;43052;52.588;13.396;2023-05-29T10:36:34;4.57;;;2.60;;
57191;SDS011;43052;52.588;13.396;2023-05-29T10:39:02;4.68;;;2.85;;
57191;SDS011;43052;52.588;13.396;2023-05-29T10:41:28;3.97;;;2.72;;
57191;SDS011;43052;52.588;13.396;2023-05-29T10:43:58;3.63;;;2.60;;
57191;SDS011;43052;52.588;13.396;2023-05-29T10:51:40;4.65;;;2.75;;
57191;SDS011;43052;52.588;13.396;2023-05-29T10:54:05;5.10;;;2.80;;
57191;SDS011;43052;52.588;13.396;2023-05-29T10:56:31;3.90;;;2.60;;
57191;SDS011;43052;52.588;13.396;2023-05-29T10:58:57;4.88;;;2.80;;
57191;SDS011;43052;52.588;13.396;2023-05-29T11:01:25;4.90;;;2.83;;
57191;SDS011;43052;52.588;13.396;2023-05-29T11:06:46;4.28;;;2.80;;
57191;SDS011;43052;52.588;13.396;2023-05-29T11:09:31;3.75;;;2.60;;
57191;SDS011;43052;52.588;13.396;2023-05-29T11:14:54;3.42;;;2.75;;
57191;SDS011;43052;52.588;13.396;2023-05-29T11:20:05;4.82;;;2.55;;
57191;SDS011;43052;52.588;13.396;2023-05-29T11:25:21;5.25;;;2.80;;
57191;SDS011;43052;52.588;13.396;2023-05-29T11:27:46;4.05;;;2.60;;
57191;SDS011;43052;52.588;13.396;2023-05-29T11:30:13;4.78;;;2.78;;
57191;SDS011;43052;52.588;13.396;2023-05-29T11:32:39;5.35;;;3.65;;
57191;SDS011;43052;52.588;13.396;2023-05-29T11:35:08;6.97;;;3.33;;
57191;SDS011;43052;52.588;13.396;2023-05-29T11:37:35;4.28;;;2.95;;
57191;SDS011;43052;52.588;13.396;2023-05-29T11:40:05;5.03;;;3.08;;
57191;SDS011;43052;52.588;13.396;2023-05-29T11:42:34;4.85;;;2.92;;
57191;SDS011;43052;52.588;13.396;2023-05-29T11:45:19;7.45;;;3.33;;
57191;SDS011;43052;52.588;13.396;2023-05-29T11:47:52;4.93;;;2.92;;
57191;SDS011;43052;52.588;13.396;2023-05-29T11:50:21;7.72;;;3.00;;
57191;SDS011;43052;52.588;13.396;2023-05-29T11:52:48;4.78;;;2.70;;
57191;SDS011;43052;52.588;13.396;2023-05-29T11:55:14;5.70;;;2.90;;
57191;SDS011;43052;52.588;13.396;2023-05-29T11:57:39;4.47;;;2.75;;
57191;SDS011;43052;52.588;13.396;2023-05-29T12:00:05;5.32;;;2.80;;
57191;SDS011;43052;52.588;13.396;2023-05-29T12:02:35;6.13;;;2.88;;
57191;SDS011;43052;52.588;13.396;2023-05-29T12:05:02;5.35;;;3.00;;
57191;SDS011;43052;52.588;13.396;2023-05-29T12:07:29;6.68;;;2.95;;
57191;SDS011;43052;52.588;13.396;2023-05-29T12:09:54;4.13;;;2.92;;
57191;SDS011;43052;52.588;13.396;2023-05-29T12:12:23;5.55;;;3.28;;
57191;SDS011;43052;52.588;13.396;2023-05-29T12:14:51;5.78;;;2.88;;
57191;SDS011;43052;52.588;13.396;2023-05-29T12:17:17;6.22;;;3.10;;
57191;SDS011;43052;52.588;13.396;2023-05-29T12:19:43;5.07;;;2.95;;
57191;SDS011;43052;52.588;13.396;2023-05-29T12:22:08;5.80;;;2.90;;
57191;SDS011;43052;52.588;13.396;2023-05-29T12:24:34;4.18;;;2.55;;
57191;SDS011;43052;52.588;13.396;2023-05-29T12:27:03;4.43;;;2.67;;
57191;SDS011;43052;52.588;13.396;2023-05-29T12:29:29;5.03;;;2.72;;
57191;SDS011;43052;52.588;13.396;2023-05-29T12:31:58;6.40;;;3.20;;
57191;SDS011;43052;52.588;13.396;2023-05-29T12:34:24;4.40;;;2.60;;
57191;SDS011;43052;52.588;13.396;2023-05-29T12:36:49;5.03;;;2.75;;
57191;SDS011;43052;52.588;13.396;2023-05-29T12:39:15;5.85;;;2.80;;
57191;SDS011;43052;52.588;13.396;2023-05-29T12:41:40;6.40;;;3.08;;
57191;SDS011;43052;52.588;13.396;2023-05-29T12:44:06;5.85;;;2.88;;
57191;SDS011;43052;52.588;13.396;2023-05-29T12:46:37;3.80;;;2.88;;
57191;SDS011;43052;52.588;13.396;2023-05-29T12:51:43;4.65;;;2.95;;
57191;SDS011;43052;52.588;13.396;2023-05-29T12:54:13;4.25;;;2.50;;
57191;SDS011;43052;52.588;13.396;2023-05-29T12:56:39;5.85;;;2.50;;
57191;SDS011;43052;52.588;13.396;2023-05-29T12:59:09;5.28;;;2.95;;
57191;SDS011;43052;52.588;13.396;2023-05-29T13:01:35;4.63;;;2.83;;
57191;SDS011;43052;52.588;13.396;2023-05-29T13:04:03;5.50;;;2.58;;
57191;SDS011;43052;52.588;13.396;2023-05-29T13:06:35;5.80;;;2.47;;
57191;SDS011;43052;52.588;13.396;2023-05-29T13:09:00;5.68;;;3.10;;
57191;SDS011;43052;52.588;13.396;2023-05-29T13:11:26;6.90;;;2.80;;
57191;SDS011;43052;52.588;13.396;2023-05-29T13:13:51;5.28;;;2.65;;
57191;SDS011;43052;52.588;13.396;2023-05-29T13:16:16;4.85;;;2.72;;
57191;SDS011;43052;52.588;13.396;2023-05-29T13:18:42;6.07;;;2.80;;
57191;SDS011;43052;52.588;13.396;2023-05-29T13:21:08;5.75;;;2.75;;
57191;SDS011;43052;52.588;13.396;2023-05-29T13:23:33;6.43;;;2.85;;
57191;SDS011;43052;52.588;13.396;2023-05-29T13:25:58;8.00;;;2.70;;
57191;SDS011;43052;52.588;13.396;2023-05-29T13:28:23;5.90;;;2.65;;
57191;SDS011;43052;52.588;13.396;2023-05-29T13:30:49;7.38;;;2.70;;
57191;SDS011;43052;52.588;13.396;2023-05-29T13:33:14;5.20;;;2.50;;
57191;SDS011;43052;52.588;13.396;2023-05-29T13:35:39;4.18;;;2.50;;
57191;SDS011;43052;52.588;13.396;2023-05-29T13:38:05;5.75;;;2.67;;
57191;SDS011;43052;52.588;13.396;2023-05-29T13:40:30;6.65;;;2.53;;
57191;SDS011;43052;52.588;13.396;2023-05-29T13:42:56;6.07;;;2.63;;
57191;SDS011;43052;52.588;13.396;2023-05-29T13:45:22;5.88;;;2.50;;
57191;SDS011;43052;52.588;13.396;2023-05-29T13:47:47;5.78;;;2.72;;
57191;SDS011;43052;52.588;13.396;2023-05-29T13:50:12;3.58;;;2.42;;
57191;SDS011;43052;52.588;13.396;2023-05-29T13:52:38;5.38;;;2.60;;
57191;SDS011;43052;52.588;13.396;2023-05-29T13:55:03;5.72;;;2.90;;
57191;SDS011;43052;52.588;13.396;2023-05-29T13:57:33;6.45;;;2.58;;
57191;SDS011;43052;52.588;13.396;2023-05-29T13:59:58;5.15;;;2.90;;
57191;SDS011;43052;52.588;13.396;2023-05-29T14:02:23;4.78;;;2.60;;
57191;SDS011;43052;52.588;13.396;2023-05-29T14:04:50;5.50;;;2.92;;
57191;SDS011;43052;52.588;13.396;2023-05-29T14:07:15;4.50;;;2.50;;
57191;SDS011;43052;52.588;13.396;2023-05-29T14:09:40;4.25;;;2.63;;
57191;SDS011;43052;52.588;13.396;2023-05-29T14:12:06;5.88;;;2.90;;
57191;SDS011;43052;52.588;13.396;2023-05-29T14:14:32;3.80;;;2.47;;
57191;SDS011;43052;52.588;13.396;2023-05-29T14:16:57;5.35;;;2.67;;
57191;SDS011;43052;52.588;13.396;2023-05-29T14:19:23;5.70;;;2.53;;
57191;SDS011;43052;52.588;13.396;2023-05-29T14:21:48;6.55;;;2.50;;
57191;SDS011;43052;52.588;13.396;2023-05-29T14:24:13;6.80;;;2.30;;
57191;SDS011;43052;52.588;13.396;2023-05-29T14:26:40;3.97;;;2.22;;
57191;SDS011;43052;52.588;13.396;2023-05-29T14:29:07;5.30;;;2.38;;
57191;SDS011;43052;52.588;13.396;2023-05-29T14:31:33;4.80;;;2.40;;
57191;SDS011;43052;52.588;13.396;2023-05-29T14:33:58;3.22;;;2.22;;
57191;SDS011;43052;52.588;13.396;2023-05-29T14:36:23;6.22;;;2.60;;
57191;SDS011;43052;52.588;13.396;2023-05-29T14:38:49;4.95;;;2.40;;
57191;SDS011;43052;52.588;13.396;2023-05-29T14:41:14;3.33;;;2.28;;
57191;SDS011;43052;52.588;13.396;2023-05-29T14:43:40;5.53;;;2.45;;
57191;SDS011;43052;52.588;13.396;2023-05-29T14:46:06;5.57;;;2.40;;
57191;SDS011;43052;52.588;13.396;2023-05-29T14:48:32;5.28;;;2.60;;
57191;SDS011;43052;52.588;13.396;2023-05-29T14:50:57;4.47;;;2.40;;
57191;SDS011;43052;52.588;13.396;2023-05-29T14:53:22;5.00;;;2.65;;
57191;SDS011;43052;52.588;13.396;2023-05-29T14:55:48;5.15;;;2.30;;
57191;SDS011;43052;52.588;13.396;2023-05-29T14:58:14;4.45;;;2.35;;
57191;SDS011;43052;52.588;13.396;2023-05-29T15:00:39;6.10;;;2.47;;